Baltia — 9HMG9 — position and weather

sailwx.info

Track history (hours):
 
Tides and Currents Weather Stations Pressure Air Temp Water Temp Dewpoint Dewpoint Depression Visibility Wind Speed Wind Dir Waves Ship Positions

Baltia

Last reported at 2018-Feb-19 19:01 UTC. Time now 2018-Feb-20 00:12 UTC.
Position N 41°20' E 140°13'.

Length 224 m; draft 12.3 m.

Type: Cargo ship. MMSI: 249174000.

Date/timePositionNaut miles runAvg speedWind from/ knotsBaromVisibWave heightAir tempDewpointWater temp
2018-Feb-19 19:01N 41°20' E 140°13'0 8.6
2018-Feb-19 19:00N 41°20' E 140°13'4 8.3
2018-Feb-19 18:30N 41°22' E 140°18'5 9.0
2018-Feb-19 17:59N 41°25' E 140°23'510.0
2018-Feb-19 17:30N 41°27' E 140°29'510.0
2018-Feb-19 17:00N 41°30' E 140°34'510.2
2018-Feb-19 16:30N 41°33' E 140°40'510.1
2018-Feb-19 15:58N 41°36' E 140°46'4 9.0
2018-Feb-19 15:30N 41°39' E 140°50'4 8.3
2018-Feb-19 15:00N 41°39' E 140°56'4 8.2
2018-Feb-19 14:30N 41°39' E 141°01'510.0
2018-Feb-19 14:00N 41°39' E 141°08'510.5
2018-Feb-19 13:30N 41°40' E 141°15'510.2
2018-Feb-19 13:00N 41°40' E 141°22'5 9.8
2018-Feb-19 12:30N 41°40' E 141°28'5 9.7
2018-Feb-19 12:00N 41°40' E 141°35'  
Track history (hours):
 
Tides and Currents Weather Stations Pressure Air Temp Water Temp Dewpoint Dewpoint Depression Visibility Wind Speed Wind Dir Waves Ship Positions

Baltia

Last reported at 2018-Feb-19 19:01 UTC. Time now 2018-Feb-20 00:12 UTC.
Position N 41°20' E 140°13'.

Length 224 m; draft 12.3 m.

Type: Cargo ship. MMSI: 249174000.

Date/timePositionNaut miles runAvg speedWind from/ knotsBaromVisibWave heightAir tempDewpointWater temp
2018-Feb-19 19:01N 41°20' E 140°13'0 8.6
2018-Feb-19 19:00N 41°20' E 140°13'4 8.3
2018-Feb-19 18:30N 41°22' E 140°18'5 9.0
2018-Feb-19 17:59N 41°25' E 140°23'510.0
2018-Feb-19 17:30N 41°27' E 140°29'510.0
2018-Feb-19 17:00N 41°30' E 140°34'510.2
2018-Feb-19 16:30N 41°33' E 140°40'510.1
2018-Feb-19 15:58N 41°36' E 140°46'4 9.0
2018-Feb-19 15:30N 41°39' E 140°50'4 8.3
2018-Feb-19 15:00N 41°39' E 140°56'4 8.2
2018-Feb-19 14:30N 41°39' E 141°01'510.0
2018-Feb-19 14:00N 41°39' E 141°08'510.5
2018-Feb-19 13:30N 41°40' E 141°15'510.2
2018-Feb-19 13:00N 41°40' E 141°22'5 9.8
2018-Feb-19 12:30N 41°40' E 141°28'5 9.7
2018-Feb-19 12:00N 41°40' E 141°35'  

Dump ship's entire track history